createdAt,value
2018-01-21T00:00:53.833Z,1.62
2018-01-21T00:03:21.961Z,2.75
2018-01-21T00:05:50.091Z,3.67
2018-01-21T00:08:18.200Z,3.50
2018-01-21T00:10:47.095Z,3.85
2018-01-21T00:13:16.882Z,4.00
2018-01-21T00:15:45.013Z,1.80
2018-01-21T00:18:13.126Z,3.65
2018-01-21T00:20:41.340Z,4.18
2018-01-21T00:23:10.227Z,4.15
2018-01-21T00:25:38.401Z,5.10
2018-01-21T00:28:07.292Z,4.45
2018-01-21T00:30:36.149Z,2.95
2018-01-21T00:33:05.059Z,2.30
2018-01-21T00:35:33.166Z,3.55
2018-01-21T00:38:01.301Z,3.85
2018-01-21T00:40:30.206Z,2.55
2018-01-21T00:42:58.378Z,2.62
2018-01-21T00:45:27.262Z,1.95
2018-01-21T00:47:55.378Z,4.40
2018-01-21T00:50:23.503Z,4.50
2018-01-21T00:52:51.612Z,3.83
2018-01-21T00:55:20.519Z,4.05
2018-01-21T00:57:48.641Z,4.40
2018-01-21T01:00:16.753Z,3.92
2018-01-21T01:02:44.886Z,2.45
2018-01-21T01:05:13.004Z,3.67
2018-01-21T01:07:41.154Z,4.57
2018-01-21T01:10:09.262Z,3.00
2018-01-21T01:12:38.194Z,4.03
2018-01-21T01:15:06.295Z,3.53
2018-01-21T01:17:34.437Z,3.80
2018-01-21T01:20:03.315Z,2.93
2018-01-21T01:22:31.443Z,3.55
2018-01-21T01:24:59.567Z,4.70
2018-01-21T01:27:29.691Z,2.12
2018-01-21T01:29:57.856Z,2.90
2018-01-21T01:32:32.609Z,3.40
2018-01-21T01:35:02.525Z,3.67
2018-01-21T01:37:31.389Z,2.30
2018-01-21T01:40:00.301Z,3.50
2018-01-21T01:42:29.168Z,4.10
2018-01-21T01:44:58.052Z,3.05
2018-01-21T01:47:26.938Z,3.37
2018-01-21T01:49:55.823Z,2.97
2018-01-21T01:52:24.755Z,3.35
2018-01-21T01:54:52.847Z,3.20
2018-01-21T01:57:20.963Z,3.90
2018-01-21T01:59:49.852Z,3.30
2018-01-21T02:02:18.732Z,3.70
2018-01-21T02:04:46.856Z,3.43
2018-01-21T02:07:15.018Z,3.15
2018-01-21T02:09:43.886Z,2.85
2018-01-21T02:12:11.992Z,2.62
2018-01-21T02:14:40.131Z,3.40
2018-01-21T02:17:09.037Z,3.62
2018-01-21T02:19:37.922Z,3.07
2018-01-21T02:22:06.803Z,3.53
2018-01-21T02:24:35.666Z,3.22
2018-01-21T02:27:03.882Z,3.42
2018-01-21T02:29:32.747Z,3.20
2018-01-21T02:32:01.663Z,3.00
2018-01-21T02:34:30.509Z,3.10
2018-01-21T02:36:59.401Z,2.75
2018-01-21T02:39:27.514Z,2.00
2018-01-21T02:41:55.623Z,3.50
2018-01-21T02:44:23.858Z,3.45
2018-01-21T02:46:52.718Z,3.65
2018-01-21T02:49:21.638Z,3.05
2018-01-21T02:51:50.525Z,2.50
2018-01-21T02:54:18.631Z,2.80
2018-01-21T02:56:46.778Z,2.17
2018-01-21T02:59:14.893Z,3.67
2018-01-21T03:01:42.997Z,3.53
2018-01-21T03:04:11.118Z,2.17
2018-01-21T03:06:39.247Z,2.15
2018-01-21T03:09:07.367Z,2.30
2018-01-21T03:11:35.501Z,3.12
2018-01-21T03:14:03.707Z,3.37
2018-01-21T03:16:31.789Z,2.97
2018-01-21T03:18:59.915Z,3.57
2018-01-21T03:21:28.045Z,3.33
2018-01-21T03:23:56.260Z,2.58
2018-01-21T03:26:25.150Z,3.72
2018-01-21T03:28:54.020Z,2.83
2018-01-21T03:31:22.889Z,1.77
2018-01-21T03:33:51.106Z,2.10
2018-01-21T03:36:19.960Z,2.70
2018-01-21T03:38:48.844Z,3.28
2018-01-21T03:41:16.960Z,3.83
2018-01-21T03:43:45.126Z,4.00
2018-01-21T03:46:14.016Z,2.97
2018-01-21T03:48:42.883Z,3.90
2018-01-21T03:51:11.013Z,4.10
2018-01-21T03:53:39.151Z,3.25
2018-01-21T03:56:08.008Z,3.30
2018-01-21T03:58:36.886Z,2.05
2018-01-21T04:01:05.014Z,3.43
2018-01-21T04:03:33.126Z,3.43
2018-01-21T04:06:01.269Z,3.42
2018-01-21T04:08:30.159Z,3.87
2018-01-21T04:10:58.272Z,2.67
2018-01-21T04:13:27.163Z,3.65
2018-01-21T04:15:56.041Z,3.10
2018-01-21T04:18:24.257Z,3.35
2018-01-21T04:20:53.146Z,2.42
2018-01-21T04:23:22.014Z,4.15
2018-01-21T04:25:50.900Z,2.85
2018-01-21T04:28:19.818Z,3.60
2018-01-21T04:30:48.706Z,3.50
2018-01-21T04:33:17.557Z,3.20
2018-01-21T04:35:46.486Z,4.12
2018-01-21T04:38:15.347Z,2.72
2018-01-21T04:40:44.231Z,3.20
2018-01-21T04:43:13.153Z,2.30
2018-01-21T04:45:42.044Z,2.00
2018-01-21T04:48:10.898Z,3.05
2018-01-21T04:50:39.801Z,2.62
2018-01-21T04:53:08.815Z,3.30
2018-01-21T04:55:37.665Z,2.87
2018-01-21T04:58:06.564Z,3.25
2018-01-21T05:00:35.437Z,2.00
2018-01-21T05:03:03.566Z,1.30
2018-01-21T05:05:31.685Z,3.10
2018-01-21T05:07:59.814Z,2.85
2018-01-21T05:10:27.935Z,3.25
2018-01-21T05:12:56.861Z,2.50
2018-01-21T05:15:25.751Z,2.90
2018-01-21T05:17:54.605Z,3.67
2018-01-21T05:20:23.495Z,3.07
2018-01-21T05:22:52.375Z,2.80
2018-01-21T05:25:20.502Z,3.15
2018-01-21T05:27:48.616Z,2.60
2018-01-21T05:30:16.839Z,3.00
2018-01-21T05:32:45.726Z,2.95
2018-01-21T05:35:13.837Z,3.10
2018-01-21T05:37:42.791Z,2.42
2018-01-21T05:40:11.645Z,2.97
2018-01-21T05:42:40.570Z,3.45
2018-01-21T05:45:09.542Z,2.45
2018-01-21T05:47:39.785Z,2.60
2018-01-21T05:50:07.939Z,2.37
2018-01-21T05:52:36.068Z,1.42
2018-01-21T05:55:04.573Z,3.05
2018-01-21T05:57:33.500Z,2.87
2018-01-21T06:00:01.614Z,3.15
2018-01-21T06:02:29.744Z,1.65
2018-01-21T06:04:58.734Z,2.73
2018-01-21T06:07:26.911Z,2.08
2018-01-21T06:09:55.779Z,4.28
2018-01-21T06:12:23.907Z,1.80
2018-01-21T06:14:52.145Z,2.70
2018-01-21T06:17:21.140Z,2.85
2018-01-21T06:19:49.994Z,2.80
2018-01-21T06:22:18.887Z,3.20
2018-01-21T06:24:47.767Z,2.67
2018-01-21T06:27:29.163Z,3.40
2018-01-21T06:29:58.037Z,3.47
2018-01-21T06:32:26.972Z,2.80
2018-01-21T06:34:55.082Z,2.25
2018-01-21T06:37:23.203Z,3.25
2018-01-21T06:39:51.341Z,3.33
2018-01-21T06:42:19.461Z,3.75
2018-01-21T06:44:47.585Z,4.10
2018-01-21T06:47:15.802Z,1.92
2018-01-21T06:49:44.678Z,2.90
2018-01-21T06:52:12.787Z,3.85
2018-01-21T06:54:40.907Z,3.05
2018-01-21T06:57:09.793Z,2.95
2018-01-21T06:59:38.680Z,2.72
2018-01-21T07:02:07.579Z,3.67
2018-01-21T07:04:36.473Z,2.43
2018-01-21T07:07:04.622Z,3.72
2018-01-21T07:09:32.739Z,2.60
2018-01-21T07:12:00.870Z,2.35
2018-01-21T07:14:29.090Z,3.25
2018-01-21T07:16:57.191Z,3.25
2018-01-21T07:19:25.316Z,3.90
2018-01-21T07:21:53.443Z,5.28
2018-01-21T07:24:21.578Z,5.37
2018-01-21T07:26:49.720Z,2.50
2018-01-21T07:29:19.022Z,3.05
2018-01-21T07:31:47.942Z,2.80
2018-01-21T07:34:16.082Z,2.87
2018-01-21T07:36:45.000Z,2.55
2018-01-21T07:39:13.101Z,2.90
2018-01-21T07:41:41.238Z,2.65
2018-01-21T07:44:09.362Z,2.65
2018-01-21T07:46:37.498Z,1.37
2018-01-21T07:49:05.606Z,2.23
2018-01-21T07:51:33.746Z,3.47
2018-01-21T07:54:01.880Z,3.00
2018-01-21T07:56:31.117Z,2.90
2018-01-21T07:58:59.835Z,2.12
2018-01-21T08:01:28.053Z,2.05
2018-01-21T08:03:56.949Z,3.35
2018-01-21T08:06:25.055Z,3.90
2018-01-21T08:08:53.212Z,3.33
2018-01-21T08:11:21.317Z,3.87
2018-01-21T08:13:50.353Z,2.28
2018-01-21T08:16:18.455Z,2.40
2018-01-21T08:18:46.590Z,2.33
2018-01-21T08:21:14.870Z,3.42
2018-01-21T08:23:43.734Z,3.83
2018-01-21T08:26:12.654Z,2.83
2018-01-21T08:28:40.766Z,4.03
2018-01-21T08:31:08.914Z,4.00
2018-01-21T08:33:37.037Z,1.50
2018-01-21T08:39:17.694Z,1.75
2018-01-21T08:41:48.592Z,3.85
2018-01-21T08:44:16.702Z,2.83
2018-01-21T08:46:44.810Z,3.40
2018-01-21T08:49:12.968Z,3.30
2018-01-21T08:51:41.085Z,4.62
2018-01-21T08:54:09.218Z,4.75
2018-01-21T08:56:38.139Z,2.65
2018-01-21T08:59:07.029Z,3.08
2018-01-21T09:01:35.191Z,3.27
2018-01-21T09:04:03.372Z,2.60
2018-01-21T09:06:31.549Z,2.83
2018-01-21T09:08:59.641Z,3.40
2018-01-21T09:11:27.892Z,4.20
2018-01-21T09:13:56.782Z,1.85
2018-01-21T09:16:24.926Z,2.03
2018-01-21T09:18:53.136Z,4.00
2018-01-21T09:21:22.046Z,4.87
2018-01-21T09:23:50.961Z,5.12
2018-01-21T09:26:19.088Z,4.85
2018-01-21T09:28:47.207Z,5.05
2018-01-21T09:31:15.330Z,1.73
2018-01-21T09:33:43.478Z,2.27
2018-01-21T09:36:12.603Z,4.80
2018-01-21T09:38:41.499Z,4.55
2018-01-21T09:41:09.614Z,3.72
2018-01-21T09:43:37.776Z,4.93
2018-01-21T09:46:05.899Z,3.95
2018-01-21T09:48:34.023Z,3.73
2018-01-21T09:51:02.252Z,4.15
2018-01-21T09:53:30.353Z,3.50
2018-01-21T09:55:58.600Z,4.60
2018-01-21T09:58:27.604Z,4.57
2018-01-21T10:00:55.735Z,3.33
2018-01-21T10:03:23.838Z,4.93
2018-01-21T10:05:51.978Z,4.53
2018-01-21T10:08:20.880Z,3.97
2018-01-21T10:10:49.764Z,3.17
2018-01-21T10:13:18.682Z,3.00
2018-01-21T10:15:46.815Z,3.25
2018-01-21T10:18:15.029Z,3.75
2018-01-21T10:20:43.903Z,3.83
2018-01-21T10:23:12.090Z,2.33
2018-01-21T10:25:40.218Z,3.53
2018-01-21T10:28:08.340Z,3.53
2018-01-21T10:30:36.449Z,3.55
2018-01-21T10:33:04.601Z,2.70
2018-01-21T10:35:32.766Z,5.27
2018-01-21T10:38:00.896Z,3.30
2018-01-21T10:40:29.034Z,3.20
2018-01-21T10:42:57.155Z,4.45
2018-01-21T10:45:26.048Z,4.10
2018-01-21T10:47:54.180Z,4.87
2018-01-21T10:50:22.312Z,2.43
2018-01-21T10:52:50.468Z,3.53
2018-01-21T10:55:18.582Z,3.05
2018-01-21T10:57:46.728Z,4.57
2018-01-21T11:00:14.881Z,3.90
2018-01-21T11:02:43.030Z,6.22
2018-01-21T11:05:11.195Z,2.57
2018-01-21T11:07:39.324Z,3.72
2018-01-21T11:10:07.444Z,4.72
2018-01-21T11:12:35.575Z,3.95
2018-01-21T11:15:03.746Z,2.55
2018-01-21T11:17:31.871Z,4.87
2018-01-21T11:20:00.078Z,2.20
2018-01-21T11:22:28.938Z,2.30
2018-01-21T11:24:57.876Z,3.65
2018-01-21T11:27:26.010Z,4.60
2018-01-21T11:29:54.876Z,4.80
2018-01-21T11:32:23.011Z,4.45
2018-01-21T11:34:51.161Z,5.73
2018-01-21T11:37:20.041Z,4.00
2018-01-21T11:39:48.931Z,5.10
2018-01-21T11:42:17.073Z,3.75
2018-01-21T11:44:45.198Z,2.42
2018-01-21T11:47:13.355Z,2.45
2018-01-21T11:49:41.481Z,3.33
2018-01-21T11:52:10.374Z,2.12
2018-01-21T11:54:38.501Z,2.35
2018-01-21T11:57:06.644Z,3.58
2018-01-21T11:59:34.771Z,1.50
2018-01-21T12:02:02.891Z,2.70
2018-01-21T12:04:31.794Z,2.90
2018-01-21T12:07:00.700Z,2.45
2018-01-21T12:09:28.847Z,2.53
2018-01-21T12:11:57.726Z,2.45
2018-01-21T12:14:26.673Z,3.37
2018-01-21T12:16:54.826Z,3.85
2018-01-21T12:19:22.976Z,3.10
2018-01-21T12:21:51.277Z,3.83
2018-01-21T12:24:20.167Z,3.20
2018-01-21T12:26:49.062Z,3.35
2018-01-21T12:29:17.240Z,2.75
2018-01-21T12:31:45.395Z,2.25
2018-01-21T12:34:13.564Z,2.90
2018-01-21T12:36:42.469Z,3.70
2018-01-21T12:39:10.586Z,3.80
2018-01-21T12:41:38.824Z,2.37
2018-01-21T12:44:07.022Z,3.78
2018-01-21T12:46:35.193Z,3.60
2018-01-21T12:49:03.390Z,3.00
2018-01-21T12:51:31.522Z,1.70
2018-01-21T12:53:59.719Z,3.50
2018-01-21T12:56:27.837Z,2.00
2018-01-21T12:58:56.135Z,3.75
2018-01-21T13:01:24.293Z,4.80
2018-01-21T13:03:53.147Z,3.60
2018-01-21T13:06:22.085Z,3.50
2018-01-21T13:08:50.230Z,2.78
2018-01-21T13:11:19.139Z,2.37
2018-01-21T13:13:47.272Z,2.37
2018-01-21T13:16:15.434Z,2.47
2018-01-21T13:18:43.541Z,2.15
2018-01-21T13:21:11.722Z,2.60
2018-01-21T13:23:39.849Z,2.97
2018-01-21T13:26:07.992Z,2.30
2018-01-21T13:28:36.133Z,2.35
2018-01-21T13:31:04.378Z,2.80
2018-01-21T13:33:32.557Z,2.75
2018-01-21T13:36:00.659Z,2.60
2018-01-21T13:38:28.817Z,2.80
2018-01-21T13:40:57.694Z,2.22
2018-01-21T13:43:26.603Z,2.35
2018-01-21T13:45:54.792Z,2.55
2018-01-21T13:48:22.967Z,1.83
2018-01-21T13:50:51.138Z,3.35
2018-01-21T13:53:19.310Z,2.20
2018-01-21T13:55:47.432Z,3.50
2018-01-21T13:58:15.570Z,2.58
2018-01-21T14:00:44.053Z,2.93
2018-01-21T14:03:12.216Z,2.80
2018-01-21T14:05:40.369Z,3.35
2018-01-21T14:08:08.487Z,3.47
2018-01-21T14:10:37.422Z,3.40
2018-01-21T14:13:05.568Z,3.08
2018-01-21T14:15:34.439Z,3.45
2018-01-21T14:18:02.597Z,3.80
2018-01-21T14:20:30.782Z,3.40
2018-01-21T14:22:58.923Z,3.53
2018-01-21T14:25:27.043Z,3.65
2018-01-21T14:27:55.243Z,3.58
2018-01-21T14:30:23.345Z,3.80
2018-01-21T14:32:51.511Z,3.75
2018-01-21T14:35:19.692Z,1.87
2018-01-21T14:37:47.841Z,3.62
2018-01-21T14:40:16.726Z,4.15
2018-01-21T14:42:44.897Z,3.72
2018-01-21T14:45:13.070Z,4.32
2018-01-21T14:47:41.985Z,3.58
2018-01-21T14:50:10.960Z,5.33
2018-01-21T14:52:39.878Z,3.65
2018-01-21T14:55:07.987Z,3.25
2018-01-21T14:57:36.210Z,2.78
2018-01-21T15:00:05.225Z,4.40
2018-01-21T15:02:33.473Z,4.80
2018-01-21T15:05:01.570Z,3.33
2018-01-21T15:07:29.832Z,3.97
2018-01-21T15:09:57.986Z,3.08
2018-01-21T15:12:26.865Z,3.20
2018-01-21T15:14:55.054Z,5.03
2018-01-21T15:17:23.245Z,6.00
2018-01-21T15:19:51.440Z,5.10
2018-01-21T15:22:19.641Z,5.75
2018-01-21T15:24:48.803Z,3.80
2018-01-21T15:27:16.910Z,4.05
2018-01-21T15:29:45.813Z,4.35
2018-01-21T15:32:13.958Z,3.78
2018-01-21T15:34:42.068Z,4.13
2018-01-21T15:37:12.783Z,4.03
2018-01-21T15:39:42.429Z,4.55
2018-01-21T15:42:10.584Z,3.95
2018-01-21T15:44:38.722Z,4.05
2018-01-21T15:47:06.930Z,3.50
2018-01-21T15:49:35.053Z,4.20
2018-01-21T15:52:03.175Z,3.80
2018-01-21T15:54:31.347Z,3.83
2018-01-21T15:57:00.246Z,3.58
2018-01-21T15:59:28.373Z,3.62
2018-01-21T16:01:57.310Z,3.77
2018-01-21T16:04:26.222Z,3.43
2018-01-21T16:06:54.452Z,3.90
2018-01-21T16:09:23.400Z,4.05
2018-01-21T16:11:51.539Z,4.22
2018-01-21T16:14:19.740Z,7.65
2018-01-21T16:16:47.873Z,11.85
2018-01-21T16:19:16.981Z,9.10
2018-01-21T16:21:45.698Z,4.50
2018-01-21T16:24:14.350Z,5.07
2018-01-21T16:26:42.511Z,5.30
2018-01-21T16:29:11.404Z,4.43
2018-01-21T16:31:39.561Z,3.90
2018-01-21T16:34:07.718Z,4.82
2018-01-21T16:36:36.848Z,7.28
2018-01-21T16:39:04.978Z,8.10
2018-01-21T16:41:33.252Z,12.60
2018-01-21T16:44:01.374Z,12.23
2018-01-21T16:46:29.501Z,8.63
2018-01-21T16:48:57.696Z,6.40
2018-01-21T16:51:25.894Z,5.90
2018-01-21T16:53:54.152Z,6.60
2018-01-21T16:56:23.894Z,6.37
2018-01-21T16:58:59.649Z,6.75
2018-01-21T17:01:29.540Z,5.40
2018-01-21T17:03:59.085Z,5.37
2018-01-21T17:06:29.313Z,5.78
2018-01-21T17:08:57.746Z,5.82
2018-01-21T17:11:25.889Z,6.45
2018-01-21T17:13:54.062Z,8.02
2018-01-21T17:16:22.303Z,6.45
2018-01-21T17:18:51.519Z,6.57
2018-01-21T17:21:19.728Z,5.40
2018-01-21T17:23:47.872Z,6.30
2018-01-21T17:26:16.007Z,6.22
2018-01-21T17:28:48.725Z,6.25
2018-01-21T17:31:16.964Z,6.05
2018-01-21T17:33:45.871Z,5.43
2018-01-21T17:36:14.109Z,7.55
2018-01-21T17:38:42.296Z,6.85
2018-01-21T17:41:11.220Z,9.20
2018-01-21T17:43:39.352Z,9.70
2018-01-21T17:46:08.257Z,9.30
2018-01-21T17:48:37.270Z,6.67
2018-01-21T17:51:07.173Z,13.20
2018-01-21T17:53:35.360Z,30.77
2018-01-21T17:56:03.547Z,18.30
2018-01-21T17:58:31.671Z,10.75
2018-01-21T18:01:00.606Z,7.00
2018-01-21T18:03:28.864Z,5.93
2018-01-21T18:05:57.075Z,5.60
2018-01-21T18:08:25.198Z,7.15
2018-01-21T18:10:54.351Z,8.20
2018-01-21T18:13:22.536Z,8.35
2018-01-21T18:15:50.826Z,7.32
2018-01-21T18:18:19.751Z,14.05
2018-01-21T18:20:47.990Z,13.48
2018-01-21T18:23:16.918Z,10.55
2018-01-21T18:25:45.034Z,7.85
2018-01-21T18:28:13.346Z,6.07
2018-01-21T18:33:17.405Z,7.60
2018-01-21T18:35:45.525Z,9.00
2018-01-21T18:38:13.792Z,15.52
2018-01-21T18:40:41.960Z,12.32
2018-01-21T18:43:10.927Z,7.68
2018-01-21T18:45:39.192Z,8.07
2018-01-21T18:48:07.341Z,8.65
2018-01-21T18:50:36.293Z,10.48
2018-01-21T18:53:04.518Z,8.13
2018-01-21T18:55:32.795Z,7.62
2018-01-21T18:58:01.017Z,7.90
2018-01-21T19:00:29.218Z,7.83
2018-01-21T19:02:57.331Z,8.18
2018-01-21T19:05:25.681Z,8.27
2018-01-21T19:07:54.788Z,8.68
2018-01-21T19:10:23.780Z,10.25
2018-01-21T19:12:51.912Z,8.40
2018-01-21T19:15:20.102Z,9.05
2018-01-21T19:17:48.369Z,8.02
2018-01-21T19:20:17.287Z,8.37
2018-01-21T19:22:45.487Z,9.98
2018-01-21T19:25:14.198Z,18.12
2018-01-21T19:27:42.377Z,14.77
2018-01-21T19:30:10.659Z,14.32
2018-01-21T19:32:39.670Z,13.27
2018-01-21T19:35:08.575Z,12.90
2018-01-21T19:37:37.064Z,12.10
2018-01-21T19:40:26.268Z,10.32
2018-01-21T19:42:55.344Z,10.70
2018-01-21T19:45:23.689Z,11.93
2018-01-21T19:47:53.706Z,10.90
2018-01-21T19:50:22.437Z,12.17
2018-01-21T19:52:50.781Z,10.88
2018-01-21T19:55:18.986Z,12.02
2018-01-21T19:57:47.166Z,9.68
2018-01-21T20:00:15.459Z,11.70
2018-01-21T20:02:43.856Z,16.08
2018-01-21T20:05:12.094Z,17.70
2018-01-21T20:07:40.329Z,14.55
2018-01-21T20:10:09.328Z,14.43
2018-01-21T20:12:38.295Z,12.20
2018-01-21T20:15:06.494Z,12.88
2018-01-21T20:17:35.476Z,11.88
2018-01-21T20:20:03.624Z,12.10
2018-01-21T20:22:31.871Z,12.15
2018-01-21T20:25:00.051Z,12.85
2018-01-21T20:27:28.333Z,12.95
2018-01-21T20:29:57.427Z,13.95
2018-01-21T20:32:25.700Z,13.73
2018-01-21T20:34:54.088Z,10.20
2018-01-21T20:37:23.194Z,10.25
2018-01-21T20:39:52.476Z,9.98
2018-01-21T20:42:20.671Z,10.40
2018-01-21T20:44:49.671Z,11.27
2018-01-21T20:47:18.660Z,12.73
2018-01-21T20:49:47.113Z,12.20
2018-01-21T20:52:20.990Z,9.20
2018-01-21T20:54:49.171Z,8.55
2018-01-21T20:57:17.491Z,8.90
2018-01-21T20:59:45.940Z,10.18
2018-01-21T21:02:14.760Z,11.30
2018-01-21T21:04:42.999Z,16.57
2018-01-21T21:07:11.254Z,17.02
2018-01-21T21:09:39.558Z,19.90
2018-01-21T21:12:07.733Z,18.85
2018-01-21T21:14:35.953Z,14.50
2018-01-21T21:17:04.133Z,13.43
2018-01-21T21:19:33.319Z,12.80
2018-01-21T21:22:02.880Z,14.48
2018-01-21T21:24:31.184Z,13.23
2018-01-21T21:26:59.352Z,12.37
2018-01-21T21:29:27.517Z,11.50
2018-01-21T21:31:55.971Z,12.48
2018-01-21T21:34:24.139Z,11.13
2018-01-21T21:36:54.198Z,9.70
2018-01-21T21:39:23.489Z,8.43
2018-01-21T21:41:58.156Z,11.43
2018-01-21T21:44:33.607Z,13.07
2018-01-21T21:47:01.943Z,11.82
2018-01-21T21:49:30.166Z,9.90
2018-01-21T21:51:59.313Z,10.32
2018-01-21T21:54:27.411Z,9.50
2018-01-21T21:56:56.592Z,8.60
2018-01-21T21:59:26.940Z,7.90
2018-01-21T22:01:55.904Z,7.28
2018-01-21T22:04:24.072Z,8.07
2018-01-21T22:06:52.646Z,7.50
2018-01-21T22:09:20.922Z,8.02
2018-01-21T22:11:49.309Z,7.30
2018-01-21T22:14:17.596Z,6.35
2018-01-21T22:16:45.736Z,6.50
2018-01-21T22:19:14.043Z,7.33
2018-01-21T22:21:44.662Z,7.70
2018-01-21T22:24:14.535Z,7.60
2018-01-21T22:26:42.852Z,7.05
2018-01-21T22:29:12.159Z,7.62
2018-01-21T22:31:40.327Z,8.98
2018-01-21T22:34:09.623Z,7.68
2018-01-21T22:36:37.916Z,7.32
2018-01-21T22:39:08.228Z,6.80
2018-01-21T22:41:36.441Z,7.40
2018-01-21T22:44:05.796Z,7.85
2018-01-21T22:46:34.001Z,6.90
2018-01-21T22:49:02.097Z,7.63
2018-01-21T22:51:30.281Z,8.45
2018-01-21T22:53:59.474Z,9.32
2018-01-21T22:56:28.246Z,8.40
2018-01-21T22:58:58.095Z,8.68
2018-01-21T23:01:26.260Z,8.15
2018-01-21T23:03:54.446Z,9.40
2018-01-21T23:06:23.942Z,7.95
2018-01-21T23:08:52.322Z,8.30
2018-01-21T23:11:21.216Z,8.75
2018-01-21T23:13:49.325Z,6.82
2018-01-21T23:16:17.491Z,7.18
2018-01-21T23:18:46.370Z,6.20
2018-01-21T23:21:15.300Z,5.72
2018-01-21T23:23:43.407Z,5.68
2018-01-21T23:26:11.553Z,6.68
2018-01-21T23:28:39.744Z,9.32
2018-01-21T23:31:07.975Z,6.75
2018-01-21T23:33:36.089Z,7.27
2018-01-21T23:36:04.221Z,5.80
2018-01-21T23:38:32.361Z,7.45
2018-01-21T23:41:00.498Z,6.35
2018-01-21T23:43:28.676Z,6.60
2018-01-21T23:45:56.819Z,6.55
2018-01-21T23:48:24.990Z,6.30
2018-01-21T23:50:53.135Z,6.20
2018-01-21T23:53:21.290Z,7.50
2018-01-21T23:55:50.235Z,6.30
2018-01-21T23:58:18.385Z,5.65
